Time;durP1;ratioP1;P1;durP2;ratioP2;P2;SDS_P1;SDS_P2;PMS_P1;PMS_P2;Temp;Humidity;BMP_temperature;BMP_pressure;BME280_temperature;BME280_humidity;BME280_pressure;Samples;Min_cycle;Max_cycle;Signal;HPM_P1;HPM_P2
2023/03/18 00:06:49;;;;;;;24.70;16.90;;;;;;;5.88;89.41;101479.71;107144;1279;71904;-96
2023/03/18 00:18:07;;;;;;;24.60;18.40;;;;;;;6.02;89.62;101466.19;105424;1271;71615;-96
2023/03/18 00:21:56;;;;;;;21.70;16.70;;;;;;;5.92;89.88;101471.81;105745;1280;63404;-95
2023/03/18 00:24:30;;;;;;;21.40;16.50;;;;;;;5.88;89.96;101473.11;106300;1278;72930;-96
2023/03/18 00:27:00;;;;;;;24.00;17.30;;;;;;;5.83;90.01;101472.91;107862;1279;61301;-96
2023/03/18 00:29:29;;;;;;;27.90;17.80;;;;;;;5.78;90.47;101473.39;107057;1278;59806;-96
2023/03/18 00:32:03;;;;;;;24.20;15.90;;;;;;;5.78;90.56;101480.85;105222;1279;73104;-95
2023/03/18 00:34:31;;;;;;;21.00;15.90;;;;;;;5.74;90.71;101471.09;105654;1278;63141;-95
2023/03/18 00:37:29;;;;;;;21.60;14.80;;;;;;;5.71;91.09;101465.06;105890;1278;71815;-96
2023/03/18 00:40:05;;;;;;;20.50;15.10;;;;;;;5.72;91.32;101461.23;106239;1278;61834;-95
2023/03/18 00:43:06;;;;;;;19.10;15.90;;;;;;;5.77;91.41;101471.34;107929;1278;60314;-95
2023/03/18 00:45:56;;;;;;;22.50;14.40;;;;;;;5.79;91.30;101466.40;107742;1282;72501;-95
2023/03/18 00:49:15;;;;;;;20.50;13.90;;;;;;;5.78;90.92;101471.48;107097;1270;65112;-96
2023/03/18 00:52:11;;;;;;;21.20;15.90;;;;;;;5.71;90.65;101480.84;107195;1279;72835;-95
2023/03/18 00:56:50;;;;;;;23.40;18.30;;;;;;;5.69;91.33;101484.91;106491;1289;613153;-96
2023/03/18 00:59:26;;;;;;;22.00;15.70;;;;;;;5.74;91.21;101491.55;106719;1266;60134;-95
2023/03/18 01:02:07;;;;;;;23.50;17.50;;;;;;;5.71;91.03;101487.28;108695;1267;59649;-95
2023/03/18 01:05:18;;;;;;;20.70;16.30;;;;;;;5.77;91.05;101488.67;109077;1260;72015;-95
2023/03/18 01:08:02;;;;;;;21.90;16.70;;;;;;;5.79;90.43;101500.58;108808;1260;63033;-96
2023/03/18 01:10:55;;;;;;;17.00;14.80;;;;;;;5.77;90.25;101503.95;106863;1260;71754;-96
2023/03/18 01:15:25;;;;;;;19.10;14.40;;;;;;;5.73;90.04;101503.35;105241;1292;616278;-96
2023/03/18 01:18:32;;;;;;;22.10;17.90;;;;;;;5.58;89.98;101493.51;107788;1269;62763;-96
2023/03/18 01:21:49;;;;;;;17.70;15.40;;;;;;;5.54;90.31;101500.36;108172;1269;59185;-96
2023/03/18 01:29:12;;;;;;;22.10;16.60;;;;;;;5.63;89.97;101504.84;103463;1273;5612775;-96
2023/03/18 01:32:24;;;;;;;22.00;15.80;;;;;;;5.57;89.90;101510.87;108104;1273;59822;-96
2023/03/18 01:36:16;;;;;;;18.00;14.50;;;;;;;5.48;89.91;101513.54;108135;1261;60871;31
2023/03/18 01:40:27;;;;;;;21.30;15.10;;;;;;;5.46;90.19;101518.78;107976;1266;71550;-96
2023/03/18 01:44:30;;;;;;;21.50;15.80;;;;;;;5.45;90.37;101519.31;108510;1271;65374;-96
2023/03/18 01:47:46;;;;;;;21.80;15.90;;;;;;;5.46;89.95;101522.59;108654;1271;72683;-95
2023/03/18 01:51:55;;;;;;;17.30;14.00;;;;;;;5.46;90.15;101521.22;106364;1271;63553;-95
2023/03/18 01:59:30;;;;;;;16.60;13.30;;;;;;;5.31;90.05;101527.79;108134;1259;71522;-95
2023/03/18 02:06:48;;;;;;;18.50;14.40;;;;;;;5.29;90.96;101526.98;107407;1271;71323;-96
2023/03/18 02:10:12;;;;;;;19.60;14.80;;;;;;;5.36;90.63;101529.60;107232;1271;59837;-96
2023/03/18 02:13:36;;;;;;;20.10;14.70;;;;;;;5.37;90.39;101533.02;107415;1271;64037;-96
2023/03/18 02:16:55;;;;;;;18.90;12.90;;;;;;;5.39;90.45;101534.37;108101;1258;73195;-95
2023/03/18 02:28:04;;;;;;;17.30;12.70;;;;;;;5.53;89.88;101535.41;111471;1248;58793;-96
2023/03/18 02:31:36;;;;;;;12.70;10.40;;;;;;;5.56;89.93;101539.01;110341;1243;71922;-93
2023/03/18 02:34:51;;;;;;;12.80;10.90;;;;;;;5.53;89.59;101536.46;103862;1246;10140634;-95
2023/03/18 02:37:36;;;;;;;13.40;11.50;;;;;;;5.47;89.34;101538.69;111039;1243;59260;-95
2023/03/18 02:40:49;;;;;;;12.70;11.10;;;;;;;5.37;89.76;101534.95;110730;1237;72072;-96
2023/03/18 02:43:31;;;;;;;15.20;11.50;;;;;;;5.41;89.85;101538.85;111173;1237;62876;-96
2023/03/18 02:46:42;;;;;;;12.90;10.80;;;;;;;5.41;90.19;101542.14;111973;1238;73246;-96
2023/03/18 02:50:06;;;;;;;16.10;11.20;;;;;;;5.49;89.80;101547.32;105930;1288;614612;-96
2023/03/18 02:52:55;;;;;;;14.90;9.50;;;;;;;5.42;89.28;101548.00;109244;1257;63376;-96
2023/03/18 02:55:45;;;;;;;15.70;11.20;;;;;;;5.32;89.46;101548.92;109147;1256;59515;-96
2023/03/18 02:58:18;;;;;;;13.20;9.50;;;;;;;5.24;89.80;101552.23;106976;1257;72996;-92
2023/03/18 03:00:48;;;;;;;18.70;11.40;;;;;;;5.20;89.99;101555.10;106967;1262;64583;-96
2023/03/18 03:03:17;;;;;;;15.20;10.70;;;;;;;5.14;90.13;101558.34;106117;1260;661987;-96
2023/03/18 03:05:51;;;;;;;16.70;10.50;;;;;;;5.11;90.60;101550.10;107395;1254;64034;-96
2023/03/18 03:08:23;;;;;;;18.00;11.70;;;;;;;5.14;90.92;101548.11;106900;1254;59371;-96
2023/03/18 03:10:53;;;;;;;13.70;10.70;;;;;;;5.19;90.54;101549.76;106831;1256;73206;-95
2023/03/18 03:13:25;;;;;;;19.30;11.60;;;;;;;5.19;90.60;101552.67;107016;1257;64793;-96
2023/03/18 03:15:56;;;;;;;16.00;11.40;;;;;;;5.16;90.64;101554.14;106800;1254;73254;-96
2023/03/18 03:18:25;;;;;;;16.20;12.30;;;;;;;5.13;90.79;101552.48;107228;1255;60611;-96
2023/03/18 03:20:56;;;;;;;18.20;12.10;;;;;;;5.13;90.72;101555.08;107761;1253;60102;-96
2023/03/18 03:23:26;;;;;;;19.80;13.20;;;;;;;5.09;90.84;101553.26;106634;1254;72960;-95
2023/03/18 03:25:58;;;;;;;12.70;11.10;;;;;;;5.11;91.03;101550.96;107161;1254;64168;-96
2023/03/18 03:28:54;;;;;;;15.90;10.90;;;;;;;5.18;91.11;101553.92;108993;1257;73138;-96
2023/03/18 03:31:36;;;;;;;12.70;9.60;;;;;;;5.24;91.04;101552.60;109570;1256;63192;-96
2023/03/18 03:37:43;;;;;;;18.80;12.40;;;;;;;5.24;91.01;101549.10;106219;1280;599602;-95
2023/03/18 03:41:40;;;;;;;;;;;;;;;;;;;;;
2023/03/18 03:44:42;;;;;;;18.80;13.80;;;;;;;5.12;90.78;101550.07;106359;1278;60840;-95
2023/03/18 03:47:20;;;;;;;24.70;15.00;;;;;;;5.09;90.64;101549.63;105933;1274;71265;-95
2023/03/18 03:50:13;;;;;;;23.20;14.70;;;;;;;5.04;90.78;101553.05;106631;1265;859064;-96
2023/03/18 03:53:10;;;;;;;18.20;12.50;;;;;;;4.95;91.30;101549.76;108073;1266;73738;-95
2023/03/18 03:55:59;;;;;;;17.00;11.00;;;;;;;5.03;91.55;101553.56;108939;1256;61693;-95
2023/03/18 03:58:45;;;;;;;15.70;11.40;;;;;;;5.09;91.47;101557.09;109140;1260;60003;-96
2023/03/18 04:01:26;;;;;;;;;;;;;;;5.11;91.42;101557.73;108440;1260;71452;-95
2023/03/18 04:04:01;;;;;;;16.50;10.70;;;;;;;5.17;91.52;101561.41;108111;1263;64641;-96
2023/03/18 04:06:32;;;;;;;19.00;12.70;;;;;;;5.23;91.06;101563.02;108716;1263;72406;-95
2023/03/18 04:09:08;;;;;;;21.10;15.20;;;;;;;5.24;90.87;101559.36;109050;1259;61807;-96
2023/03/18 04:12:34;;;;;;;25.30;19.10;;;;;;;5.17;90.26;101557.08;109169;1253;60992;-95
2023/03/18 04:15:21;;;;;;;33.20;22.50;;;;;;;5.10;90.41;101564.17;109085;1254;73240;-96
2023/03/18 04:18:08;;;;;;;32.30;21.40;;;;;;;5.06;90.36;101570.30;108026;1254;63215;-96
2023/03/18 04:20:57;;;;;;;36.70;24.20;;;;;;;5.02;90.48;101561.04;107939;1257;72970;-95
2023/03/18 04:23:52;;;;;;;31.90;21.60;;;;;;;5.06;90.61;101571.00;109063;1256;61169;-94
2023/03/18 04:26:57;;;;;;;27.70;19.70;;;;;;;5.07;90.39;101576.88;108810;1257;62215;-96
2023/03/18 04:29:49;;;;;;;31.00;19.20;;;;;;;5.04;90.12;101576.59;108937;1257;73995;-95
2023/03/18 04:32:46;;;;;;;29.30;20.30;;;;;;;4.98;89.98;101579.15;109186;1249;63194;31
2023/03/18 04:35:52;;;;;;;22.80;17.20;;;;;;;4.94;90.49;101584.43;109135;1259;74384;-94
2023/03/18 04:38:23;;;;;;;30.50;19.10;;;;;;;4.94;90.51;101588.77;108340;1261;61906;-95
2023/03/18 04:40:58;;;;;;;26.90;20.00;;;;;;;4.89;90.50;101587.99;109079;1260;60415;-95
2023/03/18 04:43:54;;;;;;;36.60;24.40;;;;;;;4.88;90.68;101584.92;109008;1260;73419;-95
2023/03/18 04:46:31;;;;;;;36.50;24.80;;;;;;;4.89;90.87;101585.06;108446;1260;64176;-96
2023/03/18 04:49:03;;;;;;;42.30;27.40;;;;;;;4.89;90.64;101583.67;108818;1260;73776;-96
2023/03/18 04:51:32;;;;;;;40.80;27.70;;;;;;;4.94;90.88;101592.76;108840;1260;59592;-96
2023/03/18 04:54:20;;;;;;;37.40;28.40;;;;;;;4.99;90.74;101592.31;108993;1257;59396;-93
2023/03/18 04:56:51;;;;;;;37.10;27.20;;;;;;;5.05;90.37;101594.59;109008;1260;72971;-95
2023/03/18 04:59:27;;;;;;;29.50;21.90;;;;;;;5.07;89.91;101592.48;108817;1260;64120;-93
2023/03/18 05:01:57;;;;;;;32.90;20.60;;;;;;;5.06;89.83;101599.60;108914;1260;72711;-96
2023/03/18 05:05:51;;;;;;;32.00;20.50;;;;;;;5.00;89.62;101597.30;106408;1288;600469;-95
2023/03/18 05:09:05;;;;;;;27.70;18.80;;;;;;;4.89;90.05;101597.88;109199;1260;58032;-93
2023/03/18 05:11:44;;;;;;;28.00;17.30;;;;;;;4.89;90.12;101601.34;108611;1261;60422;-94
2023/03/18 05:14:40;;;;;;;21.30;15.10;;;;;;;4.90;90.17;101604.46;108388;1261;73926;-96
2023/03/18 05:17:58;;;;;;;25.40;16.00;;;;;;;4.89;90.24;101604.80;108347;1251;65285;31
2023/03/18 05:20:36;;;;;;;18.30;12.90;;;;;;;4.91;90.25;101605.13;108340;1265;688081;-95
2023/03/18 05:23:40;;;;;;;22.70;11.50;;;;;;;4.97;90.04;101607.77;108848;1265;62110;-96
2023/03/18 05:26:22;;;;;;;21.90;12.30;;;;;;;5.01;90.05;101611.48;108730;1265;61416;-96
2023/03/18 05:28:57;;;;;;;25.80;13.00;;;;;;;5.02;89.96;101612.52;107617;1265;71897;-96
2023/03/18 05:32:31;;;;;;;23.50;12.80;;;;;;;5.08;89.88;101618.64;108566;1251;62257;-96
2023/03/18 05:36:22;;;;;;;22.20;13.10;;;;;;;5.12;89.68;101612.48;108984;1254;72330;-96
2023/03/18 05:39:53;;;;;;;24.30;13.30;;;;;;;5.18;89.44;101621.87;107373;1255;59557;-96
2023/03/18 05:42:24;;;;;;;25.00;11.40;;;;;;;5.19;89.13;101624.98;106748;1264;59619;-95
2023/03/18 05:45:00;;;;;;;24.90;11.90;;;;;;;5.15;88.74;101626.09;106549;1263;73952;-95
2023/03/18 05:47:36;;;;;;;24.50;10.80;;;;;;;5.10;89.05;101631.59;107118;1261;63935;-95
2023/03/18 05:50:12;;;;;;;21.10;11.90;;;;;;;5.13;89.35;101633.27;106844;1264;73885;-96
2023/03/18 05:52:43;;;;;;;31.40;11.70;;;;;;;5.14;89.02;101634.27;106717;1263;61832;-96
2023/03/18 05:55:19;;;;;;;20.50;11.60;;;;;;;5.12;89.15;101636.41;107221;1260;61761;-95
2023/03/18 05:57:49;;;;;;;22.90;12.10;;;;;;;5.11;88.96;101642.31;108269;1258;72977;-96
2023/03/18 06:00:18;;;;;;;27.70;10.40;;;;;;;5.06;88.85;101645.02;107897;1263;63015;-94
2023/03/18 06:02:48;;;;;;;29.10;10.20;;;;;;;5.02;88.86;101641.11;108615;1257;72661;-96
2023/03/18 06:05:20;;;;;;;15.90;8.90;;;;;;;5.09;88.90;101647.38;107949;1260;60834;-96
2023/03/18 06:07:49;;;;;;;25.90;10.90;;;;;;;5.13;88.55;101654.76;107073;1253;61601;-96
2023/03/18 06:10:18;;;;;;;29.40;10.30;;;;;;;5.08;88.71;101656.05;107342;1257;74361;-95
2023/03/18 06:12:49;;;;;;;30.90;12.00;;;;;;;5.04;88.70;101660.31;106720;1259;63442;-96
2023/03/18 06:15:22;;;;;;;23.40;10.00;;;;;;;5.02;89.00;101658.96;107153;1254;72653;-96
2023/03/18 06:17:53;;;;;;;26.30;10.10;;;;;;;5.04;89.06;101662.05;109307;1254;60891;-96
2023/03/18 06:20:37;;;;;;;23.40;8.10;;;;;;;4.99;88.97;101655.39;109541;1254;60569;-96
2023/03/18 06:23:38;;;;;;;32.00;11.10;;;;;;;5.03;89.48;101660.32;109462;1248;71028;-95
2023/03/18 06:26:58;;;;;;;23.90;11.50;;;;;;;5.14;89.47;101666.69;97223;1255;61825;-96
2023/03/18 06:43:35;;;;;;;40.70;15.10;;;;;;;5.15;88.70;101675.16;108383;1269;71986;-96
2023/03/18 06:54:19;;;;;;;47.70;9.40;;;;;;;5.36;87.38;101672.64;108111;1272;58865;-96
2023/03/18 06:58:33;;;;;;;38.70;7.60;;;;;;;5.34;86.83;101670.96;108386;1269;58892;-95
2023/03/18 07:18:22;;;;;;;47.30;9.40;;;;;;;5.94;84.24;101678.14;105384;1260;5004309;-94
2023/03/18 07:22:41;;;;;;;38.90;10.40;;;;;;;5.82;84.72;101674.24;110794;1243;73395;-96
2023/03/18 07:33:32;;;;;;;28.50;7.10;;;;;;;5.81;84.08;101680.66;111625;1244;61728;-96
2023/03/18 07:53:01;;;;;;;35.90;6.70;;;;;;;5.82;84.43;101690.89;111744;1236;59949;-96
2023/03/18 07:57:03;;;;;;;36.60;5.90;;;;;;;5.95;83.25;101692.00;111126;1236;59501;-96
2023/03/18 08:34:54;;;;;;;46.70;9.60;;;;;;;5.92;82.35;101712.54;106673;1286;599819;31
2023/03/18 08:38:44;;;;;;;44.30;9.50;;;;;;;6.15;82.58;101709.42;106157;1291;61500;31
2023/03/18 08:43:26;;;;;;;;;;;;;;;;;;;;;
2023/03/18 17:33:51;;;;;;;14.00;9.50;;;;;;;5.43;78.32;101765.81;110218;1252;614460;-96
2023/03/18 17:37:57;;;;;;;16.80;9.50;;;;;;;5.42;77.88;101764.44;110179;1243;1171129;-96
2023/03/18 17:42:00;;;;;;;16.50;10.00;;;;;;;5.38;77.91;101766.07;111843;1237;58864;31
2023/03/18 18:16:05;;;;;;;14.60;8.70;;;;;;;5.10;78.75;101764.34;111864;1233;60885;-94
2023/03/18 18:18:40;;;;;;;12.00;7.00;;;;;;;5.11;78.53;101762.08;111603;1235;73163;-96
2023/03/18 18:21:15;;;;;;;14.30;7.80;;;;;;;5.10;78.72;101761.05;112200;1233;63721;-96
2023/03/18 18:27:15;;;;;;;20.60;13.30;;;;;;;5.11;78.59;101762.77;111647;1233;61396;-96
2023/03/18 18:33:24;;;;;;;12.70;7.50;;;;;;;5.17;78.72;101767.69;112337;1232;71586;-96
2023/03/18 18:36:33;;;;;;;16.60;10.00;;;;;;;5.15;78.69;101768.08;112317;1232;62597;-96
2023/03/18 18:40:19;;;;;;;17.60;7.50;;;;;;;5.18;78.54;101767.68;111830;1234;71421;-96
2023/03/18 18:44:13;;;;;;;11.30;7.10;;;;;;;5.18;78.50;101773.41;111926;1241;57997;-96
2023/03/18 18:47:46;;;;;;;10.50;6.40;;;;;;;5.16;78.41;101773.77;111269;1241;59408;-96
2023/03/18 18:50:34;;;;;;;10.10;6.50;;;;;;;5.14;78.43;101772.07;111260;1244;74038;-96
2023/03/18 18:53:35;;;;;;;11.90;6.80;;;;;;;5.10;78.54;101777.70;110665;1244;63977;-96
2023/03/18 18:56:56;;;;;;;11.20;6.90;;;;;;;5.09;78.67;101775.80;110700;1244;71247;-96
2023/03/18 19:00:22;;;;;;;15.10;7.00;;;;;;;5.15;79.01;101774.14;111466;1248;60871;-96
2023/03/18 19:07:07;;;;;;;;;;;;;;;;;;;;;
2023/03/18 19:10:00;;;;;;;14.10;8.10;;;;;;;5.26;78.10;101773.42;107884;1267;60640;-96
2023/03/18 19:12:51;;;;;;;13.00;8.00;;;;;;;5.21;78.15;101769.52;108532;1266;59610;-94
2023/03/18 19:15:36;;;;;;;11.60;7.70;;;;;;;5.23;78.05;101772.95;108564;1266;72125;-96
2023/03/18 19:18:39;;;;;;;12.80;7.60;;;;;;;5.22;78.25;101772.80;108312;1267;62869;-96
2023/03/18 19:26:30;;;;;;;10.90;6.10;;;;;;;5.15;78.47;101774.31;108653;1261;59803;-94
2023/03/18 19:33:18;;;;;;;12.80;9.20;;;;;;;5.17;78.76;101765.78;107696;1280;71364;-96
2023/03/18 19:36:51;;;;;;;18.70;12.50;;;;;;;5.15;78.43;101763.56;107634;1280;63282;-95
2023/03/18 19:39:37;;;;;;;15.10;12.50;;;;;;;5.17;78.20;101764.58;107274;1283;73917;-95
2023/03/18 19:42:22;;;;;;;16.20;13.90;;;;;;;5.14;78.31;101759.95;107780;1276;58214;-96
2023/03/18 19:45:48;;;;;;;17.60;14.60;;;;;;;5.12;78.56;101759.30;107768;1275;60578;-96
2023/03/18 19:49:46;;;;;;;15.50;10.40;;;;;;;5.14;78.49;101758.04;107728;1276;73614;-96
2023/03/18 19:52:46;;;;;;;10.70;7.10;;;;;;;5.10;78.25;101758.11;108031;1267;64120;-96
2023/03/18 19:59:36;;;;;;;11.90;6.80;;;;;;;5.10;78.84;101752.23;108170;1272;60495;-96
2023/03/18 20:06:20;;;;;;;8.90;5.50;;;;;;;5.16;78.04;101753.66;103493;1266;978021;-94
2023/03/18 20:32:08;;;;;;;;;;;;;;;;;;;;;
2023/03/18 20:38:15;;;;;;;10.70;6.80;;;;;;;5.26;76.92;101723.31;99982;1276;980331;-94
2023/03/18 20:41:34;;;;;;;10.10;6.90;;;;;;;5.23;77.28;101718.00;106550;1288;71977;-96
2023/03/18 20:44:20;;;;;;;12.50;6.60;;;;;;;5.25;77.28;101717.80;106192;1286;61300;-95
2023/03/18 20:47:15;;;;;;;10.70;6.50;;;;;;;5.28;77.32;101715.28;107430;1276;60330;-95
2023/03/18 20:50:45;;;;;;;12.70;8.00;;;;;;;5.27;77.31;101707.33;107626;1276;72074;-96
2023/03/18 20:53:47;;;;;;;11.00;6.90;;;;;;;5.29;77.28;101708.15;107108;1279;61872;-96
2023/03/18 20:56:40;;;;;;;;;;;;;;;5.27;77.23;101705.26;106982;1279;72624;-95
2023/03/18 20:59:26;;;;;;;13.70;7.10;;;;;;;5.23;77.22;101701.39;106725;1279;59880;-96
2023/03/18 21:01:55;;;;;;;13.10;8.60;;;;;;;5.22;77.33;101701.74;106186;1286;60803;-95
2023/03/18 21:04:24;;;;;;;15.00;7.70;;;;;;;5.23;77.28;101700.66;106266;1280;72328;-95
2023/03/18 21:06:57;;;;;;;15.40;8.50;;;;;;;5.19;77.42;101695.36;106656;1279;63627;-96
2023/03/18 21:09:55;;;;;;;17.40;8.20;;;;;;;5.16;77.56;101690.92;106080;1280;71752;-95
2023/03/18 21:12:31;;;;;;;11.80;7.70;;;;;;;5.14;77.33;101695.64;106191;1280;59852;-95
2023/03/18 21:15:32;;;;;;;11.20;7.40;;;;;;;5.04;77.35;101692.55;106846;1279;61604;-96
2023/03/18 21:18:36;;;;;;;10.60;6.90;;;;;;;4.98;77.76;101691.95;106887;1280;72107;-95
2023/03/18 21:21:32;;;;;;;9.90;7.00;;;;;;;4.90;77.98;101688.66;106569;1280;60910;-95
2023/03/18 21:24:00;;;;;;;9.40;5.90;;;;;;;4.88;78.20;101688.17;106920;1277;72893;-95
2023/03/18 21:26:31;;;;;;;12.30;6.80;;;;;;;4.90;78.46;101688.14;107221;1276;59447;-95
2023/03/18 21:29:21;;;;;;;11.40;6.00;;;;;;;4.93;78.53;101688.95;107180;1276;59983;-95
2023/03/18 21:31:52;;;;;;;11.70;6.10;;;;;;;5.00;78.46;101688.13;106608;1276;72016;-94
2023/03/18 21:34:24;;;;;;;13.50;6.60;;;;;;;5.03;78.53;101682.69;106594;1280;65443;-95
2023/03/18 21:36:57;;;;;;;9.20;5.60;;;;;;;5.06;78.36;101681.05;106754;1276;71508;-96
2023/03/18 21:39:33;;;;;;;9.10;5.50;;;;;;;5.09;78.17;101680.15;106526;1276;59760;-94
2023/03/18 21:44:59;;;;;;;10.40;4.90;;;;;;;5.10;78.04;101675.79;106506;1286;613021;-95
2023/03/18 21:48:02;;;;;;;6.80;5.10;;;;;;;5.08;78.07;101674.10;108055;1270;62416;-95
2023/03/18 21:50:55;;;;;;;6.50;4.20;;;;;;;5.05;78.09;101669.30;108518;1269;59683;-96
2023/03/18 21:53:57;;;;;;;5.00;3.50;;;;;;;5.04;78.13;101667.43;107675;1257;72055;-96
2023/03/18 21:56:32;;;;;;;6.50;4.20;;;;;;;5.02;78.38;101666.42;107694;1259;65331;-96
2023/03/18 21:59:02;;;;;;;7.80;4.40;;;;;;;5.06;78.30;101668.23;107122;1260;71634;-94
2023/03/18 22:01:37;;;;;;;5.80;3.10;;;;;;;5.09;78.18;101666.27;108023;1257;60372;-95
2023/03/18 22:04:07;;;;;;;5.70;3.00;;;;;;;5.10;78.31;101670.06;107638;1257;59408;-94
2023/03/18 22:06:36;;;;;;;3.00;2.70;;;;;;;5.10;78.30;101669.02;107275;1257;73247;-94
2023/03/18 22:09:12;;;;;;;4.50;2.80;;;;;;;5.10;78.28;101667.80;107678;1257;64638;-95
2023/03/18 22:12:05;;;;;;;4.60;2.40;;;;;;;5.09;78.21;101657.77;106908;1254;74756;-94
2023/03/18 22:14:37;;;;;;;4.00;2.90;;;;;;;5.10;77.98;101663.13;108324;1254;59462;-96
2023/03/18 22:17:32;;;;;;;3.50;2.70;;;;;;;5.05;78.17;101658.56;107806;1254;59759;-94
2023/03/18 22:20:01;;;;;;;2.40;2.20;;;;;;;5.02;78.20;101662.25;107444;1254;72804;-96
2023/03/18 22:22:35;;;;;;;3.50;2.20;;;;;;;5.03;78.55;101656.19;108379;1254;63056;-96
2023/03/18 22:25:40;;;;;;;2.80;2.20;;;;;;;4.97;78.40;101648.30;108834;1254;71780;-95
2023/03/18 22:28:13;;;;;;;3.40;2.20;;;;;;;4.95;78.92;101650.42;108330;1259;59697;-94
2023/03/18 22:30:44;;;;;;;2.80;2.40;;;;;;;4.96;78.84;101650.06;106848;1259;60823;-95
2023/03/18 22:33:18;;;;;;;4.50;2.70;;;;;;;4.93;78.87;101650.63;106624;1259;71702;-95
2023/03/18 22:35:47;;;;;;;4.80;2.20;;;;;;;4.92;79.22;101651.35;106865;1259;63599;-93
2023/03/18 22:38:19;;;;;;;2.90;2.10;;;;;;;4.95;79.17;101653.22;106649;1259;72604;-95
2023/03/18 22:40:52;;;;;;;3.00;2.20;;;;;;;4.92;79.17;101650.48;107230;1260;59919;-95
2023/03/18 22:43:26;;;;;;;2.40;2.00;;;;;;;4.90;79.23;101650.02;107543;1259;60494;-94
2023/03/18 22:45:57;;;;;;;2.50;1.90;;;;;;;4.85;79.09;101649.24;107478;1260;73104;-93
2023/03/18 22:48:28;;;;;;;2.10;1.80;;;;;;;4.82;79.43;101648.80;107125;1261;63908;-94
2023/03/18 22:50:58;;;;;;;4.10;2.60;;;;;;;4.81;79.70;101650.54;107350;1259;72647;-93
2023/03/18 22:53:38;;;;;;;3.50;1.80;;;;;;;4.84;79.89;101646.84;107437;1259;61101;-93
2023/03/18 22:56:12;;;;;;;3.20;2.40;;;;;;;4.85;79.88;101641.27;107807;1259;59674;-94
2023/03/18 22:58:41;;;;;;;5.20;2.40;;;;;;;4.91;79.83;101642.54;108961;1259;73479;-96
2023/03/18 23:01:27;;;;;;;5.40;2.20;;;;;;;4.91;79.68;101638.91;108750;1259;63884;-94
2023/03/18 23:04:03;;;;;;;3.00;2.00;;;;;;;4.90;79.90;101638.40;108012;1254;72869;-94
2023/03/18 23:06:34;;;;;;;5.60;2.30;;;;;;;4.94;79.73;101634.86;108380;1254;59690;-93
2023/03/18 23:09:04;;;;;;;3.90;2.50;;;;;;;4.89;79.68;101631.15;109253;1254;60022;-94
2023/03/18 23:11:33;;;;;;;3.80;3.20;;;;;;;4.87;79.60;101632.40;109428;1254;72643;-94
2023/03/18 23:14:03;;;;;;;3.20;1.90;;;;;;;4.83;79.58;101634.55;109032;1259;63843;-96
2023/03/18 23:16:32;;;;;;;4.30;2.40;;;;;;;4.81;79.63;101629.74;108487;1254;72629;-92
2023/03/18 23:19:01;;;;;;;2.80;2.00;;;;;;;4.79;79.90;101626.14;108959;1254;60791;-92
2023/03/18 23:21:34;;;;;;;4.60;2.60;;;;;;;4.82;80.09;101629.73;108371;1254;60303;-93
2023/03/18 23:24:05;;;;;;;2.40;1.70;;;;;;;4.84;79.97;101627.61;107483;1254;73056;-92
2023/03/18 23:26:35;;;;;;;3.70;2.50;;;;;;;4.86;80.11;101627.73;107802;1254;63754;-92
2023/03/18 23:29:05;;;;;;;6.40;3.00;;;;;;;4.88;80.06;101624.05;108740;1254;72662;-91
2023/03/18 23:31:34;;;;;;;4.00;2.40;;;;;;;4.89;79.99;101623.70;108331;1254;59273;-94
2023/03/18 23:34:06;;;;;;;3.00;2.10;;;;;;;4.88;79.92;101617.48;107873;1254;60467;-93
2023/03/18 23:36:36;;;;;;;5.50;2.50;;;;;;;4.92;79.74;101616.18;107551;1254;73448;-94
2023/03/18 23:39:09;;;;;;;3.20;2.30;;;;;;;4.93;79.56;101614.79;107668;1254;64883;-95
2023/03/18 23:41:41;;;;;;;3.30;2.20;;;;;;;4.91;79.54;101618.30;107736;1254;72344;-94
2023/03/18 23:44:10;;;;;;;4.10;2.20;;;;;;;4.88;79.54;101611.42;106913;1254;61016;-95
2023/03/18 23:46:40;;;;;;;4.50;2.10;;;;;;;4.85;79.48;101611.84;106902;1260;60034;-95
2023/03/18 23:49:12;;;;;;;5.10;2.20;;;;;;;4.78;79.40;101610.94;108039;1254;73781;-96
2023/03/18 23:51:43;;;;;;;3.10;2.30;;;;;;;4.74;79.88;101606.50;107525;1254;63859;-95
2023/03/18 23:54:12;;;;;;;2.90;2.10;;;;;;;4.74;79.91;101604.58;107838;1254;72437;-94
2023/03/18 23:56:49;;;;;;;3.10;2.10;;;;;;;4.74;80.08;101601.30;107306;1254;59727;-95
2023/03/18 23:59:24;;;;;;;3.80;2.10;;;;;;;4.74;79.81;101595.23;107140;1259;60454;-96
